Terminal Aerodrome Forecast
Issued by NWS Jackson, MS

Home | Current Version | Previous Version | Text Only | Print | Product List | Glossary On
Versions: 1 2 3 4 5 6 7 8 9 10 11 12 13 14 15 16 17
000
FTUS44 KJAN 061724
TAFMEI
TAF
KMEI 061724Z 0618/0718 30009KT P6SM OVC010
     FM070600 36004KT 4SM BR OVC007
     FM071200 02003KT 1SM BR OVC003
     FM071600 02003KT P6SM OVC007=

USA.gov is the U.S. government's official web portal to all federal, state and local government web resources and services.